< < Back
Terminal Aerodrome Forecast


Current Version              Previous Versions:   1  2  3  4  5  6  7  8  9  

Terminal Aerodrome Forecast

852
FTUS42 KGSP 291126
TAFCLT
TAF
KCLT 291126Z 2912/3012 36003KT P6SM SCT250
     FM291500 06006KT P6SM SCT050 SCT150 SCT250
     FM300300 14004KT P6SM BKN120=

Latest METAR

917
SAUS70 KWBC 300300 RRL
MTRCLT
METAR KCLT 300252Z 29003KT 10SM BKN150 OVC250 23/16 A3017 RMK AO2 SLP209
T02280161 50008


USA.gov is the U.S. government's official web portal to all federal, state and local government web resources and services.